Mia-s — V2EI7 — position and weather

sailwx.info

Track history (hours):
 
Tides and Currents Weather Stations Pressure Air Temp Water Temp Dewpoint Dewpoint Depression Visibility Wind Speed Wind Dir Waves Ship Positions

Mia-s

Last reported at 2015-May-25 08:33 UTC. Time now 2015-May-25 09:21 UTC.
Position N 08°20' W 062°43'.

Length 190 m; draft 6.5 m.

Type: Cargo ship. MMSI: 305442000.

Date/timePositionNaut miles runAvg speedWind from/ knotsBaromVisibWave heightAir tempDewpointWater temp
2015-May-25 08:33N 08°20' W 062°43'0 0.0
2015-May-25 07:33N 08°20' W 062°43'0 0.0
2015-May-25 06:33N 08°20' W 062°43'0 0.0
2015-May-25 05:30N 08°20' W 062°43'0 0.0
2015-May-25 04:30N 08°20' W 062°43'0 0.0
2015-May-25 03:30N 08°20' W 062°43'0 0.0
2015-May-25 02:30N 08°20' W 062°43'0 0.0
2015-May-25 01:33N 08°20' W 062°43'0 0.0
2015-May-25 00:33N 08°20' W 062°43'0 0.0
2015-May-24 23:33N 08°20' W 062°43'0 0.4
2015-May-24 22:33N 08°21' W 062°43'6 5.5
2015-May-24 21:33N 08°24' W 062°39'1 0.7
2015-May-24 20:32N 08°24' W 062°39'0 0.0
2015-May-24 19:32N 08°24' W 062°39'0 0.0
2015-May-24 18:31N 08°24' W 062°39'0 0.0
2015-May-24 17:31N 08°24' W 062°39'0 0.0
2015-May-24 16:31N 08°24' W 062°39'0 0.0
2015-May-24 15:31N 08°24' W 062°39'0 0.0
2015-May-24 14:31N 08°24' W 062°39'0 0.0
2015-May-24 13:31N 08°24' W 062°39'0 0.0
2015-May-24 12:31N 08°24' W 062°39'0 0.0
2015-May-24 11:31N 08°24' W 062°39'0 0.0
2015-May-24 10:31N 08°24' W 062°39'0 0.0
2015-May-24 09:31N 08°24' W 062°39'0 0.0
2015-May-24 08:31N 08°24' W 062°39'0 0.0
2015-May-24 07:31N 08°24' W 062°39'0 0.0
2015-May-24 06:32N 08°24' W 062°39'0 0.0
2015-May-24 05:31N 08°24' W 062°39'0 0.0
2015-May-24 04:31N 08°24' W 062°39'0 0.0
2015-May-24 03:31N 08°24' W 062°39'0 0.0
2015-May-24 02:31N 08°24' W 062°39'0 0.0
2015-May-24 01:31N 08°24' W 062°39'0 0.0
2015-May-24 00:31N 08°24' W 062°39'0 0.0
2015-May-23 23:31N 08°24' W 062°39'0 0.0
2015-May-23 22:31N 08°24' W 062°39'0 0.0
2015-May-23 21:31N 08°24' W 062°39'0 0.0
2015-May-23 20:31N 08°24' W 062°39'0 0.1
2015-May-23 19:30N 08°24' W 062°39'7 7.6
2015-May-23 18:33N 08°29' W 062°34'1312.2
2015-May-23 17:30N 08°33' W 062°22'  
2015-May-15 10:13N 08°33' W 062°22'  
Track history (hours):
 
Tides and Currents Weather Stations Pressure Air Temp Water Temp Dewpoint Dewpoint Depression Visibility Wind Speed Wind Dir Waves Ship Positions

Mia-s

Last reported at 2015-May-25 08:33 UTC. Time now 2015-May-25 09:21 UTC.
Position N 08°20' W 062°43'.

Length 190 m; draft 6.5 m.

Type: Cargo ship. MMSI: 305442000.

Date/timePositionNaut miles runAvg speedWind from/ knotsBaromVisibWave heightAir tempDewpointWater temp
2015-May-25 08:33N 08°20' W 062°43'0 0.0
2015-May-25 07:33N 08°20' W 062°43'0 0.0
2015-May-25 06:33N 08°20' W 062°43'0 0.0
2015-May-25 05:30N 08°20' W 062°43'0 0.0
2015-May-25 04:30N 08°20' W 062°43'0 0.0
2015-May-25 03:30N 08°20' W 062°43'0 0.0
2015-May-25 02:30N 08°20' W 062°43'0 0.0
2015-May-25 01:33N 08°20' W 062°43'0 0.0
2015-May-25 00:33N 08°20' W 062°43'0 0.0
2015-May-24 23:33N 08°20' W 062°43'0 0.4
2015-May-24 22:33N 08°21' W 062°43'6 5.5
2015-May-24 21:33N 08°24' W 062°39'1 0.7
2015-May-24 20:32N 08°24' W 062°39'0 0.0
2015-May-24 19:32N 08°24' W 062°39'0 0.0
2015-May-24 18:31N 08°24' W 062°39'0 0.0
2015-May-24 17:31N 08°24' W 062°39'0 0.0
2015-May-24 16:31N 08°24' W 062°39'0 0.0
2015-May-24 15:31N 08°24' W 062°39'0 0.0
2015-May-24 14:31N 08°24' W 062°39'0 0.0
2015-May-24 13:31N 08°24' W 062°39'0 0.0
2015-May-24 12:31N 08°24' W 062°39'0 0.0
2015-May-24 11:31N 08°24' W 062°39'0 0.0
2015-May-24 10:31N 08°24' W 062°39'0 0.0
2015-May-24 09:31N 08°24' W 062°39'0 0.0
2015-May-24 08:31N 08°24' W 062°39'0 0.0
2015-May-24 07:31N 08°24' W 062°39'0 0.0
2015-May-24 06:32N 08°24' W 062°39'0 0.0
2015-May-24 05:31N 08°24' W 062°39'0 0.0
2015-May-24 04:31N 08°24' W 062°39'0 0.0
2015-May-24 03:31N 08°24' W 062°39'0 0.0
2015-May-24 02:31N 08°24' W 062°39'0 0.0
2015-May-24 01:31N 08°24' W 062°39'0 0.0
2015-May-24 00:31N 08°24' W 062°39'0 0.0
2015-May-23 23:31N 08°24' W 062°39'0 0.0
2015-May-23 22:31N 08°24' W 062°39'0 0.0
2015-May-23 21:31N 08°24' W 062°39'0 0.0
2015-May-23 20:31N 08°24' W 062°39'0 0.1
2015-May-23 19:30N 08°24' W 062°39'7 7.6
2015-May-23 18:33N 08°29' W 062°34'1312.2
2015-May-23 17:30N 08°33' W 062°22'  
2015-May-15 10:13N 08°33' W 062°22'  

Dump ship's entire track history